Time;durP1;ratioP1;P1;durP2;ratioP2;P2;SDS_P1;SDS_P2;PMS_P1;PMS_P2;Temp;Humidity;BMP_temperature;BMP_pressure;BME280_temperature;BME280_humidity;BME280_pressure;Samples;Min_cycle;Max_cycle;Signal;HPM_P1;HPM_P2
2022/07/25 00:00:11;;;;;;;6.27;3.90;;;20.70;1.00;;;;;;6349303;22;20439;-82
2022/07/25 00:02:38;;;;;;;6.87;3.53;;;20.70;1.00;;;;;;6351082;22;20405;-81
2022/07/25 00:05:10;;;;;;;7.70;3.20;;;20.60;1.00;;;;;;6347409;22;20880;-81
2022/07/25 00:07:37;;;;;;;5.93;3.50;;;20.60;1.00;;;;;;6350247;22;20421;-82
2022/07/25 00:10:09;;;;;;;5.53;2.87;;;20.60;1.00;;;;;;6348332;22;20475;-79
2022/07/25 00:12:38;;;;;;;5.87;3.10;;;20.60;1.00;;;;;;6350048;22;20500;-81
2022/07/25 00:15:10;;;;;;;5.93;3.30;;;20.50;1.00;;;;;;6349158;22;20436;-81
2022/07/25 00:17:37;;;;;;;6.20;3.60;;;20.50;1.00;;;;;;6353741;22;20421;-79
2022/07/25 00:20:09;;;;;;;6.80;3.47;;;20.50;1.00;;;;;;6350997;22;20444;-80
2022/07/25 00:22:36;;;;;;;5.70;2.70;;;20.50;1.00;;;;;;6352130;22;20475;-80
2022/07/25 00:25:03;;;;;;;6.13;3.33;;;20.40;1.00;;;;;;6351616;22;20425;-80
2022/07/25 00:27:31;;;;;;;6.63;3.50;;;20.40;1.00;;;;;;6353457;22;20392;-81
2022/07/25 00:29:59;;;;;;;7.23;3.50;;;20.40;1.00;;;;;;6351710;22;20410;-79
2022/07/25 00:32:31;;;;;;;5.80;3.00;;;20.30;1.00;;;;;;6351734;22;20405;-79
2022/07/25 00:34:57;;;;;;;5.60;2.73;;;20.40;1.00;;;;;;6351161;22;20846;-82
2022/07/25 00:37:26;;;;;;;6.50;3.53;;;20.30;1.00;;;;;;6352150;22;20409;-81
2022/07/25 00:39:56;;;;;;;5.50;2.90;;;20.30;1.00;;;;;;6350338;22;20425;-80
2022/07/25 00:42:23;;;;;;;6.33;3.60;;;20.30;1.00;;;;;;6352177;22;20500;-81
2022/07/25 00:44:51;;;;;;;5.40;2.93;;;20.30;1.00;;;;;;6353953;22;20423;-79
2022/07/25 00:47:19;;;;;;;5.20;3.00;;;20.30;1.00;;;;;;6353392;22;20389;-80
2022/07/25 00:49:52;;;;;;;6.80;3.30;;;20.20;1.00;;;;;;6354236;22;20404;-80
2022/07/25 00:52:19;;;;;;;6.23;3.70;;;20.20;1.00;;;;;;6351696;22;20529;-79
2022/07/25 00:54:58;;;;;;;7.00;3.13;;;20.20;1.00;;;;;;6350195;22;20428;-81
2022/07/25 00:57:31;;;;;;;5.80;3.50;;;20.10;1.00;;;;;;6349620;22;20432;-81
2022/07/25 00:59:58;;;;;;;5.70;3.10;;;20.10;1.00;;;;;;6350039;22;20856;-80
2022/07/25 01:02:30;;;;;;;5.73;3.30;;;20.00;1.00;;;;;;6352565;22;20520;-79
2022/07/25 01:04:57;;;;;;;5.77;3.00;;;20.00;1.00;;;;;;6351573;22;20425;-81
2022/07/25 01:07:29;;;;;;;5.53;3.07;;;20.00;1.00;;;;;;6352947;22;20917;-79
2022/07/25 01:09:57;;;;;;;5.53;2.80;;;20.00;1.00;;;;;;6351038;22;20413;-79
2022/07/25 01:12:24;;;;;;;6.10;3.43;;;20.00;1.00;;;;;;6351379;22;20418;-81
2022/07/25 01:14:53;;;;;;;10.00;3.83;;;19.90;1.00;;;;;;6351397;22;20448;-82
2022/07/25 01:17:21;;;;;;;6.23;3.10;;;19.80;1.00;;;;;;6350953;22;20493;-82
2022/07/25 01:19:50;;;;;;;5.47;3.10;;;19.80;1.00;;;;;;6352829;22;20555;-81
2022/07/25 01:22:22;;;;;;;6.43;3.40;;;19.80;1.00;;;;;;6351963;22;20385;-80
2022/07/25 01:24:52;;;;;;;5.63;2.60;;;19.80;1.00;;;;;;6351873;22;20464;-80
2022/07/25 01:27:27;;;;;;;6.20;3.40;;;19.80;1.00;;;;;;6350631;22;20449;-81
2022/07/25 01:29:54;;;;;;;6.73;3.00;;;19.80;1.00;;;;;;6350731;22;20806;-82
2022/07/25 01:32:20;;;;;;;5.80;3.37;;;19.70;1.00;;;;;;6347918;22;20413;-82
2022/07/25 01:34:51;;;;;;;5.13;2.80;;;19.80;1.00;;;;;;6352139;22;20388;-82
2022/07/25 01:37:19;;;;;;;5.73;3.10;;;19.80;1.00;;;;;;6351211;22;20429;-82
2022/07/25 01:39:51;;;;;;;5.33;3.17;;;19.80;1.00;;;;;;6353299;22;20385;-80
2022/07/25 01:42:18;;;;;;;5.93;3.20;;;19.80;1.00;;;;;;6353184;22;20445;-80
2022/07/25 01:44:50;;;;;;;5.30;3.17;;;19.80;1.00;;;;;;6350708;22;20407;-82
2022/07/25 01:47:17;;;;;;;5.40;3.33;;;19.80;1.00;;;;;;6350335;22;20418;-81
2022/07/25 01:49:44;;;;;;;5.10;2.70;;;19.80;1.00;;;;;;6350725;22;20417;-81
2022/07/25 01:52:12;;;;;;;5.83;2.93;;;19.80;1.00;;;;;;6352313;22;20400;-80
2022/07/25 01:54:41;;;;;;;5.20;2.97;;;19.80;1.00;;;;;;6351708;22;20486;-82
2022/07/25 01:57:11;;;;;;;6.70;2.50;;;19.80;1.00;;;;;;6352901;22;20366;-79
2022/07/25 01:59:39;;;;;;;5.50;2.77;;;19.70;1.00;;;;;;6353051;22;20423;-79
2022/07/25 02:02:11;;;;;;;6.30;2.80;;;19.70;1.00;;;;;;6352522;22;20429;-81
2022/07/25 02:04:38;;;;;;;6.87;3.27;;;19.70;1.00;;;;;;6351032;22;20893;-82
2022/07/25 02:07:06;;;;;;;5.17;2.77;;;19.70;1.00;;;;;;6349924;22;20871;-79
2022/07/25 02:09:34;;;;;;;6.80;3.37;;;19.70;1.00;;;;;;6353215;22;20409;-80
2022/07/25 02:12:02;;;;;;;5.67;3.03;;;19.60;1.00;;;;;;6352072;22;20492;-79
2022/07/25 02:14:31;;;;;;;5.13;2.90;;;19.60;1.00;;;;;;6352102;22;20401;-78
2022/07/25 02:16:58;;;;;;;5.47;2.87;;;19.60;1.00;;;;;;6352579;22;20413;-81
2022/07/25 02:19:26;;;;;;;6.60;3.10;;;19.50;1.00;;;;;;6353644;22;20474;-81
2022/07/25 02:21:53;;;;;;;7.20;3.53;;;19.50;1.00;;;;;;6353770;22;20474;-80
2022/07/25 02:24:20;;;;;;;4.90;2.60;;;19.50;1.00;;;;;;6352509;22;20508;-79
2022/07/25 02:26:51;;;;;;;6.40;3.33;;;19.40;1.00;;;;;;6352972;22;20424;-79
2022/07/25 02:29:21;;;;;;;5.20;3.07;;;19.40;1.00;;;;;;6353620;22;20540;-82
2022/07/25 02:31:48;;;;;;;6.23;3.20;;;19.30;1.00;;;;;;6353845;22;20442;-79
2022/07/25 02:34:15;;;;;;;8.33;3.33;;;19.30;1.00;;;;;;6345500;22;20504;-79
2022/07/25 02:36:42;;;;;;;6.73;3.23;;;19.20;1.00;;;;;;6345227;22;20441;-79
2022/07/25 02:39:12;;;;;;;8.30;4.10;;;19.20;1.00;;;;;;6343201;22;20419;-79
2022/07/25 02:41:39;;;;;;;6.40;3.17;;;19.20;1.00;;;;;;6347230;22;20442;-78
2022/07/25 02:44:12;;;;;;;5.27;2.93;;;19.20;1.00;;;;;;6345799;22;20976;-79
2022/07/25 02:46:40;;;;;;;5.23;2.83;;;19.20;1.00;;;;;;6349260;22;20814;-78
2022/07/25 02:49:14;;;;;;;6.03;3.47;;;19.20;1.00;;;;;;6348045;22;20457;-77
2022/07/25 02:51:41;;;;;;;6.80;3.20;;;19.20;1.00;;;;;;6355372;22;20378;-79
2022/07/25 02:54:13;;;;;;;5.47;3.27;;;19.20;1.00;;;;;;6353638;22;20386;-79
2022/07/25 02:56:40;;;;;;;5.63;3.80;;;19.10;1.00;;;;;;6354290;22;21216;-78
2022/07/25 02:59:12;;;;;;;5.63;3.17;;;19.00;1.00;;;;;;6351347;22;20452;-78
2022/07/25 03:01:41;;;;;;;5.50;3.27;;;19.00;1.00;;;;;;6352793;22;20445;-82
2022/07/25 03:04:12;;;;;;;5.73;3.00;;;19.10;1.00;;;;;;6353823;22;20421;-81
2022/07/25 03:06:39;;;;;;;6.37;3.63;;;19.00;1.00;;;;;;6354331;22;20378;-80
2022/07/25 03:09:10;;;;;;;9.57;3.63;;;19.00;1.00;;;;;;6353963;22;20897;-81
2022/07/25 03:11:37;;;;;;;6.43;3.43;;;19.00;1.00;;;;;;6354451;22;20471;-81
2022/07/25 03:14:04;;;;;;;6.17;3.30;;;19.00;1.00;;;;;;6350301;22;20429;-82
2022/07/25 03:16:32;;;;;;;5.20;3.30;;;19.00;1.00;;;;;;6355471;22;20442;-81
2022/07/25 03:19:00;;;;;;;6.40;3.30;;;19.00;1.00;;;;;;6352020;22;20481;-80
2022/07/25 03:21:39;;;;;;;5.87;3.60;;;19.00;1.00;;;;;;6354068;22;20417;-79
2022/07/25 03:24:12;;;;;;;6.10;3.30;;;19.00;1.00;;;;;;6353169;22;20421;-79
2022/07/25 03:26:39;;;;;;;5.60;3.50;;;18.90;1.00;;;;;;6353902;22;20867;-81
2022/07/25 03:29:11;;;;;;;6.43;3.80;;;18.90;1.00;;;;;;6352027;22;20400;-81
2022/07/25 03:31:39;;;;;;;6.00;3.53;;;18.90;1.00;;;;;;6351356;22;20413;-80
2022/07/25 03:34:11;;;;;;;5.83;3.40;;;18.90;1.00;;;;;;6351031;22;20409;-81
2022/07/25 03:36:38;;;;;;;8.80;7.83;;;18.90;1.00;;;;;;6326016;22;20484;-81
2022/07/25 03:39:13;;;;;;;7.20;4.20;;;18.90;1.00;;;;;;6350529;22;20467;-81
2022/07/25 03:41:40;;;;;;;7.77;3.43;;;18.90;1.00;;;;;;6353682;22;20425;-80
2022/07/25 03:44:19;;;;;;;7.70;3.97;;;18.90;1.00;;;;;;6354145;22;20413;-79
2022/07/25 03:46:50;;;;;;;6.90;4.07;;;19.00;1.00;;;;;;6354452;22;20416;-77
2022/07/25 03:49:19;;;;;;;7.73;4.70;;;19.00;1.00;;;;;;6355256;22;20445;-81
2022/07/25 03:51:51;;;;;;;6.63;4.03;;;19.00;1.00;;;;;;6355351;22;20369;-81
2022/07/25 03:54:18;;;;;;;6.90;4.00;;;19.00;1.00;;;;;;6356866;22;20402;-79
2022/07/25 03:56:51;;;;;;;8.33;4.17;;;19.00;1.00;;;;;;6356026;22;20409;-82
2022/07/25 03:59:20;;;;;;;6.33;3.90;;;19.00;1.00;;;;;;6354748;22;20409;-79
2022/07/25 04:01:52;;;;;;;5.40;3.20;;;19.00;1.00;;;;;;6352831;22;20508;-83
2022/07/25 04:04:20;;;;;;;10.20;4.83;;;19.00;1.00;;;;;;6351457;22;20471;-81
2022/07/25 04:06:52;;;;;;;7.10;3.60;;;19.00;1.00;;;;;;6356900;22;20548;-82
2022/07/25 04:09:19;;;;;;;6.03;3.80;;;19.00;1.00;;;;;;6354769;22;20445;-81
2022/07/25 04:11:48;;;;;;;5.70;3.50;;;18.90;1.00;;;;;;6355196;22;20671;-81
2022/07/25 04:14:17;;;;;;;7.93;4.53;;;18.90;1.00;;;;;;6354920;22;20448;-81
2022/07/25 04:16:44;;;;;;;8.50;5.10;;;18.90;1.00;;;;;;6356654;22;20432;-80
2022/07/25 04:19:12;;;;;;;5.60;3.40;;;18.90;1.00;;;;;;6355637;22;20456;-80
2022/07/25 04:21:40;;;;;;;8.07;4.70;;;18.90;1.00;;;;;;6356506;22;20385;-78
2022/07/25 04:24:12;;;;;;;7.60;4.07;;;18.90;1.00;;;;;;6356763;22;20420;-80
2022/07/25 04:26:39;;;;;;;7.83;6.00;;;18.90;1.00;;;;;;6353334;22;20400;-79
2022/07/25 04:29:07;;;;;;;6.00;3.47;;;19.00;1.00;;;;;;6353019;22;21027;-78
2022/07/25 04:31:34;;;;;;;7.40;3.93;;;19.00;1.00;;;;;;6352552;22;20417;-81
2022/07/25 04:34:00;;;;;;;7.00;4.07;;;19.10;1.00;;;;;;6347654;22;20433;-83
2022/07/25 04:36:28;;;;;;;6.03;4.00;;;19.10;1.00;;;;;;6351586;22;20410;-81
2022/07/25 04:38:56;;;;;;;6.93;3.90;;;19.10;1.00;;;;;;6349421;22;20425;-81
2022/07/25 04:41:23;;;;;;;6.90;3.93;;;19.20;1.00;;;;;;6347798;22;20413;-82
2022/07/25 04:43:50;;;;;;;6.17;4.13;;;19.20;1.00;;;;;;6347615;22;20464;-81
2022/07/25 04:46:21;;;;;;;7.63;4.37;;;19.30;1.00;;;;;;6347901;22;20409;-81
2022/07/25 04:48:48;;;;;;;5.70;3.13;;;19.30;1.00;;;;;;6347980;22;20425;-82
2022/07/25 04:51:15;;;;;;;6.30;4.00;;;19.30;1.00;;;;;;6349153;22;20418;-81
2022/07/25 04:53:42;;;;;;;6.60;3.80;;;19.40;1.00;;;;;;6349890;22;20421;-81
2022/07/25 04:56:13;;;;;;;9.03;3.80;;;19.50;1.00;;;;;;6353142;22;20389;-81
2022/07/25 04:58:46;;;;;;;7.80;3.50;;;19.50;1.00;;;;;;6353805;22;20389;-82
2022/07/25 05:01:13;;;;;;;6.93;3.60;;;19.60;1.00;;;;;;6350646;22;20432;-79
2022/07/25 05:03:42;;;;;;;7.83;3.80;;;19.60;1.00;;;;;;6353408;22;20420;-80
2022/07/25 05:06:10;;;;;;;12.43;9.80;;;19.70;1.00;;;;;;6352910;22;20614;-82
2022/07/25 05:08:41;;;;;;;7.20;3.47;;;19.70;1.00;;;;;;6355315;22;20401;-82
2022/07/25 05:11:08;;;;;;;5.87;3.50;;;19.80;1.00;;;;;;6353152;22;20837;-82
2022/07/25 05:13:41;;;;;;;6.47;3.40;;;19.90;1.00;;;;;;6352264;22;20455;-81
2022/07/25 05:16:10;;;;;;;5.93;3.00;;;20.00;1.00;;;;;;6352550;22;20403;-81
2022/07/25 05:18:42;;;;;;;5.93;3.17;;;20.00;1.00;;;;;;6354401;22;20373;-79
2022/07/25 05:21:11;;;;;;;5.60;2.97;;;20.20;1.00;;;;;;6351655;22;20421;-81
2022/07/25 05:23:42;;;;;;;5.70;3.20;;;20.20;1.00;;;;;;6350140;22;21020;-80
2022/07/25 05:26:12;;;;;;;6.77;2.77;;;20.30;1.00;;;;;;6352888;22;20492;-82
2022/07/25 05:28:44;;;;;;;5.50;3.37;;;20.40;1.00;;;;;;6351324;22;20459;-81
2022/07/25 05:31:13;;;;;;;6.43;3.17;;;20.50;1.00;;;;;;6353763;22;20396;-80
2022/07/25 05:33:42;;;;;;;5.37;3.20;;;20.60;1.00;;;;;;6353619;22;20419;-79
2022/07/25 05:36:11;;;;;;;6.50;3.13;;;20.70;1.00;;;;;;6355673;22;20429;-81
2022/07/25 05:38:42;;;;;;;5.60;3.10;;;20.80;1.00;;;;;;6355808;22;20445;-80
2022/07/25 05:41:12;;;;;;;7.17;3.50;;;20.90;1.00;;;;;;6350601;22;20508;-82
2022/07/25 05:43:46;;;;;;;7.60;3.63;;;21.00;1.00;;;;;;6354721;22;20404;-83
2022/07/25 05:46:13;;;;;;;8.50;3.80;;;21.10;1.00;;;;;;6352347;22;20489;-80
2022/07/25 05:48:43;;;;;;;6.97;3.53;;;21.30;1.00;;;;;;6354751;22;20397;-80
2022/07/25 05:51:13;;;;;;;11.70;4.23;;;21.40;1.00;;;;;;6353569;22;20382;-80
2022/07/25 05:53:42;;;;;;;9.20;4.17;;;21.50;1.00;;;;;;6355568;22;20552;-81
2022/07/25 05:56:12;;;;;;;9.03;3.93;;;21.70;1.00;;;;;;6352788;22;20422;-79
2022/07/25 05:58:39;;;;;;;8.57;4.00;;;22.10;1.00;;;;;;6354446;22;20417;-79
2022/07/25 06:01:16;;;;;;;12.70;4.07;;;22.20;1.00;;;;;;6353738;22;20397;-80
2022/07/25 06:03:45;;;;;;;6.60;3.90;;;22.40;1.00;;;;;;6355917;22;20399;-79
2022/07/25 06:06:12;;;;;;;9.30;3.37;;;22.50;1.00;;;;;;6356208;22;20401;-81
2022/07/25 06:08:39;;;;;;;7.30;3.63;;;22.50;1.00;;;;;;6354803;22;20418;-78
2022/07/25 06:11:12;;;;;;;8.73;3.80;;;22.60;1.00;;;;;;6354647;22;20530;-80
2022/07/25 06:13:39;;;;;;;7.73;3.60;;;22.70;1.00;;;;;;6355837;22;20613;-80
2022/07/25 06:16:16;;;;;;;8.13;4.00;;;22.80;1.00;;;;;;6356168;22;20951;-81
2022/07/25 06:18:43;;;;;;;9.43;4.17;;;22.90;1.00;;;;;;6357572;22;20420;-80
2022/07/25 06:21:13;;;;;;;6.53;4.10;;;23.00;1.00;;;;;;6353861;22;20423;-81
2022/07/25 06:23:40;;;;;;;8.80;4.20;;;23.10;1.00;;;;;;6356096;22;20405;-81
2022/07/25 06:26:12;;;;;;;13.37;4.83;;;23.30;1.00;;;;;;6354503;22;20497;-79
2022/07/25 06:28:39;;;;;;;7.37;4.40;;;23.30;1.00;;;;;;6353765;22;20409;-80
2022/07/25 06:31:12;;;;;;;7.53;3.80;;;23.40;1.00;;;;;;6353502;22;20417;-78
2022/07/25 06:33:39;;;;;;;9.53;4.23;;;23.50;1.00;;;;;;6354723;22;20491;-79
2022/07/25 06:36:12;;;;;;;10.50;4.93;;;23.60;1.00;;;;;;6353409;22;20421;-79
2022/07/25 06:38:39;;;;;;;9.83;4.30;;;23.70;1.00;;;;;;6353318;22;20495;-80
2022/07/25 06:41:07;;;;;;;7.33;4.20;;;23.70;1.00;;;;;;6353539;22;20431;-78
2022/07/25 06:43:34;;;;;;;8.23;4.63;;;23.90;1.00;;;;;;6355402;22;20479;-79
2022/07/25 06:46:01;;;;;;;10.77;4.57;;;23.90;1.00;;;;;;6353358;22;20456;-80
2022/07/25 06:48:39;;;;;;;8.83;4.70;;;24.10;1.00;;;;;;6354416;22;20461;-81
2022/07/25 06:51:10;;;;;;;7.40;4.50;;;24.20;1.00;;;;;;6352283;22;20460;-81
2022/07/25 06:53:37;;;;;;;8.87;4.70;;;24.20;1.00;;;;;;6351107;22;20437;-81
2022/07/25 06:56:04;;;;;;;9.00;4.47;;;24.20;1.00;;;;;;6350388;22;20409;-80
2022/07/25 06:58:30;;;;;;;8.60;4.37;;;24.30;1.00;;;;;;6353829;22;20875;-79
2022/07/25 07:01:01;;;;;;;9.10;4.90;;;24.30;1.00;;;;;;6352380;22;20424;-80
2022/07/25 07:03:36;;;;;;;9.33;4.40;;;24.40;1.00;;;;;;6351375;22;20427;-81
2022/07/25 07:06:05;;;;;;;10.47;4.90;;;24.50;1.00;;;;;;6349851;22;20496;-81
2022/07/25 07:08:32;;;;;;;6.77;4.37;;;24.70;1.00;;;;;;6351342;22;20912;-79
2022/07/25 07:11:07;;;;;;;7.57;4.70;;;24.70;1.00;;;;;;6350990;22;20401;-82
2022/07/25 07:13:34;;;;;;;8.90;4.77;;;24.90;1.00;;;;;;6351656;22;20932;-79
2022/07/25 07:16:03;;;;;;;7.83;4.60;;;25.00;1.00;;;;;;6351644;22;20437;-80
2022/07/25 07:18:29;;;;;;;15.87;5.40;;;25.10;1.00;;;;;;6346747;22;20409;-80
2022/07/25 07:20:57;;;;;;;6.93;4.50;;;25.20;1.00;;;;;;6348958;22;20401;-80
2022/07/25 07:23:31;;;;;;;7.63;4.93;;;25.20;1.00;;;;;;6359564;22;20424;-78
2022/07/25 07:26:02;;;;;;;9.20;4.67;;;25.30;1.00;;;;;;6358207;22;20417;-81
2022/07/25 07:28:29;;;;;;;6.93;4.40;;;25.40;1.00;;;;;;6351276;22;20556;-80
2022/07/25 07:31:00;;;;;;;8.47;5.67;;;25.50;1.00;;;;;;6350695;22;20501;-82
2022/07/25 07:33:28;;;;;;;7.67;4.50;;;25.60;1.00;;;;;;6351517;22;20422;-81
2022/07/25 07:35:55;;;;;;;10.33;5.10;;;25.80;1.00;;;;;;6351632;22;20405;-80
2022/07/25 07:38:27;;;;;;;6.77;4.87;;;25.90;1.00;;;;;;6334449;22;20423;-79
2022/07/25 07:40:54;;;;;;;10.20;5.67;;;26.10;1.00;;;;;;6347976;22;20508;-78
2022/07/25 07:43:24;;;;;;;7.63;5.10;;;26.20;1.00;;;;;;6351873;22;20407;-81
2022/07/25 07:45:51;;;;;;;7.20;5.03;;;26.40;1.00;;;;;;6350279;22;20410;-78
2022/07/25 07:48:22;;;;;;;8.20;5.43;;;26.40;1.00;;;;;;6350278;22;20381;-79
2022/07/25 07:50:49;;;;;;;9.67;6.23;;;26.50;1.00;;;;;;6351647;22;20921;-81
2022/07/25 07:53:16;;;;;;;8.07;5.83;;;26.70;1.00;;;;;;6349800;22;22286;-79
2022/07/25 07:55:44;;;;;;;8.10;5.60;;;26.70;1.00;;;;;;6351591;22;20376;-81
2022/07/25 07:58:11;;;;;;;10.03;5.87;;;26.90;1.00;;;;;;6351339;22;20444;-81
2022/07/25 08:00:44;;;;;;;7.50;5.50;;;27.10;1.00;;;;;;6353011;22;20445;-81
2022/07/25 08:03:11;;;;;;;7.87;5.50;;;27.40;1.00;;;;;;6346351;22;20516;-81
2022/07/25 08:05:46;;;;;;;7.53;5.77;;;27.60;1.00;;;;;;6351739;22;20437;-79
2022/07/25 08:08:15;;;;;;;8.80;6.00;;;27.70;1.00;;;;;;6350015;22;20385;-77
2022/07/25 08:10:48;;;;;;;8.67;5.90;;;27.90;1.00;;;;;;6352483;22;20445;-80
2022/07/25 08:13:21;;;;;;;8.57;5.73;;;28.00;1.00;;;;;;6321339;22;20394;-79
2022/07/25 08:15:56;;;;;;;8.90;5.93;;;28.10;1.00;;;;;;6351958;22;20420;-82
2022/07/25 08:18:25;;;;;;;7.90;6.43;;;28.20;1.00;;;;;;6304428;22;20421;-75
2022/07/25 08:20:53;;;;;;;10.90;6.00;;;28.40;1.00;;;;;;6352444;22;20428;-81
2022/07/25 08:23:24;;;;;;;9.33;6.63;;;28.60;1.00;;;;;;6350990;22;20439;-79
2022/07/25 08:25:52;;;;;;;12.33;6.33;;;28.60;1.00;;;;;;6351878;22;20497;-80
2022/07/25 08:28:22;;;;;;;9.00;5.83;;;28.80;1.00;;;;;;6350701;22;20446;-78
2022/07/25 08:30:52;;;;;;;8.20;5.97;;;28.90;1.00;;;;;;6350614;22;20567;-82
2022/07/25 08:33:22;;;;;;;8.53;6.00;;;29.00;1.00;;;;;;6351611;22;20436;-79
2022/07/25 08:35:52;;;;;;;9.50;6.70;;;29.00;1.00;;;;;;6349897;22;20437;-79
2022/07/25 08:38:28;;;;;;;11.33;7.00;;;29.00;1.00;;;;;;6325935;22;20409;-83
2022/07/25 08:41:01;;;;;;;10.13;7.20;;;29.10;1.00;;;;;;6355067;22;20431;-82
2022/07/25 08:43:31;;;;;;;11.63;7.27;;;29.20;1.00;;;;;;6353543;22;20942;-79
2022/07/25 08:46:05;;;;;;;9.13;7.23;;;29.40;1.00;;;;;;6350884;22;20400;-81
2022/07/25 08:48:32;;;;;;;10.90;6.77;;;29.50;1.00;;;;;;6354971;22;20420;-82
2022/07/25 08:51:03;;;;;;;8.93;6.90;;;29.60;1.00;;;;;;6352820;22;20433;-79
2022/07/25 08:53:31;;;;;;;9.60;7.60;;;29.80;1.00;;;;;;6352158;22;20486;-82
2022/07/25 08:56:04;;;;;;;10.30;7.63;;;29.90;1.00;;;;;;6339198;22;20401;-80
2022/07/25 08:58:33;;;;;;;8.60;7.50;;;30.10;1.00;;;;;;6355605;22;20434;-80
2022/07/25 09:01:03;;;;;;;10.20;7.17;;;30.20;1.00;;;;;;6354736;22;20555;-81
2022/07/25 09:03:29;;;;;;;11.10;7.77;;;30.20;1.00;;;;;;6350369;22;20886;-80
2022/07/25 09:06:01;;;;;;;13.07;8.10;;;30.30;1.00;;;;;;6354830;22;20397;-82
2022/07/25 09:08:28;;;;;;;10.00;7.17;;;30.40;1.00;;;;;;6358840;22;20389;-83
2022/07/25 09:10:55;;;;;;;10.37;7.13;;;30.50;1.00;;;;;;6352168;22;20421;-85
2022/07/25 09:13:25;;;;;;;11.50;8.80;;;30.60;1.00;;;;;;6323940;22;20450;-82
2022/07/25 09:15:55;;;;;;;9.50;7.40;;;30.70;1.00;;;;;;6322728;22;20425;-82
2022/07/25 09:18:25;;;;;;;9.97;8.20;;;31.00;1.00;;;;;;6321917;22;20403;-80
2022/07/25 09:20:57;;;;;;;11.83;8.20;;;31.10;1.00;;;;;;6324262;22;20434;-82
2022/07/25 09:23:29;;;;;;;9.67;8.17;;;31.30;1.00;;;;;;6323612;22;20460;-82
2022/07/25 09:26:03;;;;;;;9.80;8.17;;;31.40;1.00;;;;;;6324199;22;20439;-82
2022/07/25 09:28:32;;;;;;;9.17;7.67;;;31.40;1.00;;;;;;6323037;22;20990;-81
2022/07/25 09:31:11;;;;;;;11.40;9.33;;;31.50;1.00;;;;;;6324373;22;21272;-81
2022/07/25 09:33:45;;;;;;;9.70;8.27;;;31.60;1.00;;;;;;6326184;22;20456;-82
2022/07/25 09:36:13;;;;;;;11.07;8.67;;;31.80;1.00;;;;;;6323035;22;20877;-81
2022/07/25 09:38:52;;;;;;;9.60;8.23;;;32.20;1.00;;;;;;6324732;22;20390;-82
2022/07/25 09:41:33;;;;;;;11.67;9.17;;;33.10;1.00;;;;;;6323886;22;20811;-82
2022/07/25 09:44:16;;;;;;;10.17;8.67;;;34.40;1.00;;;;;;6329686;22;20413;-82
2022/07/25 09:46:45;;;;;;;10.50;9.10;;;35.60;1.00;;;;;;6324219;22;20433;-83
2022/07/25 09:49:13;;;;;;;9.80;8.37;;;36.60;1.00;;;;;;6326000;22;20390;-83
2022/07/25 09:51:44;;;;;;;11.53;9.13;;;37.70;1.00;;;;;;6323427;22;20402;-82
2022/07/25 09:54:15;;;;;;;12.10;9.00;;;38.40;1.00;;;;;;6324772;22;20428;-81
2022/07/25 09:56:45;;;;;;;9.90;8.77;;;39.10;1.00;;;;;;6328061;22;20445;-82
2022/07/25 09:59:14;;;;;;;10.43;9.33;;;39.60;1.00;;;;;;6325965;22;20387;-82
2022/07/25 10:01:52;;;;;;;10.00;8.80;;;39.60;1.00;;;;;;6325541;22;20472;-83
2022/07/25 10:04:30;;;;;;;10.47;9.00;;;39.70;1.00;;;;;;6327648;22;20386;-82
2022/07/25 10:07:08;;;;;;;9.70;8.40;;;39.70;1.00;;;;;;6327476;22;20400;-84
2022/07/25 10:09:43;;;;;;;10.10;8.70;;;39.90;1.00;;;;;;6327314;22;21029;-80
2022/07/25 10:12:12;;;;;;;11.00;9.70;;;40.90;1.00;;;;;;6336848;22;20441;-81
2022/07/25 10:15:05;;;;;;;10.13;9.00;;;40.80;1.00;;;;;;6356192;22;20473;-82
2022/07/25 10:17:32;;;;;;;10.13;8.37;;;41.50;1.00;;;;;;6360124;22;20425;-83
2022/07/25 10:20:06;;;;;;;10.47;8.87;;;42.10;1.00;;;;;;6356579;22;20378;-81
2022/07/25 10:22:44;;;;;;;10.07;8.83;;;42.50;1.00;;;;;;6359203;22;20417;-83
2022/07/25 10:25:13;;;;;;;10.13;8.97;;;43.10;1.00;;;;;;6357723;22;20449;-81
2022/07/25 10:27:47;;;;;;;11.67;9.90;;;43.10;1.00;;;;;;6355541;22;20396;-79
2022/07/25 10:30:28;;;;;;;10.17;9.17;;;43.10;1.00;;;;;;6355293;22;20445;-84
2022/07/25 10:33:04;;;;;;;10.60;9.20;;;43.20;1.00;;;;;;6355259;22;20448;-82
2022/07/25 10:35:32;;;;;;;10.10;9.07;;;42.80;1.00;;;;;;6351833;22;20492;-81
2022/07/25 10:38:03;;;;;;;10.03;9.03;;;42.20;1.00;;;;;;6352990;22;20386;-81
2022/07/25 10:40:35;;;;;;;10.83;9.83;;;41.90;1.00;;;;;;6353315;22;20526;-81
2022/07/25 10:43:09;;;;;;;11.20;10.10;;;41.60;1.00;;;;;;6354106;22;20412;-83
2022/07/25 10:45:49;;;;;;;11.13;9.23;;;42.00;1.00;;;;;;6355090;22;20432;-82
2022/07/25 10:48:25;;;;;;;11.00;9.90;;;42.50;1.00;;;;;;6348161;22;20415;-82
2022/07/25 10:51:03;;;;;;;10.30;8.93;;;42.70;1.00;;;;;;6351990;22;20516;-83
2022/07/25 10:53:35;;;;;;;10.37;9.00;;;43.00;1.00;;;;;;6352024;22;20381;-84
2022/07/25 10:56:08;;;;;;;10.13;9.13;;;43.20;1.00;;;;;;6355493;22;20420;-81
2022/07/25 10:58:46;;;;;;;10.30;8.87;;;43.50;1.00;;;;;;6352354;22;20444;-82
2022/07/25 11:01:23;;;;;;;13.20;9.80;;;43.50;1.00;;;;;;6354243;22;20441;-81
2022/07/25 11:03:51;;;;;;;9.47;8.50;;;43.60;1.00;;;;;;6328775;22;20429;-81
2022/07/25 11:06:29;;;;;;;11.20;10.03;;;43.70;1.00;;;;;;6352974;22;20963;-82
2022/07/25 11:08:59;;;;;;;11.03;8.80;;;43.40;1.00;;;;;;6349982;22;20388;-81
2022/07/25 11:11:46;;;;;;;9.50;8.50;;;43.00;1.00;;;;;;6349903;22;20476;-78
2022/07/25 11:14:23;;;;;;;9.47;8.57;;;43.30;1.00;;;;;;6349834;22;20419;-80
2022/07/25 11:16:52;;;;;;;10.03;8.97;;;43.80;1.00;;;;;;6350110;22;20429;-82
2022/07/25 11:19:26;;;;;;;10.17;9.17;;;43.90;1.00;;;;;;6352647;22;20392;-82
2022/07/25 11:21:54;;;;;;;10.23;9.00;;;43.90;1.00;;;;;;6352889;22;20436;-83
2022/07/25 11:24:46;;;;;;;10.10;9.10;;;43.90;1.00;;;;;;6351200;22;20378;-82
2022/07/25 11:27:23;;;;;;;9.97;8.97;;;42.50;1.00;;;;;;6350629;22;20849;-82
2022/07/25 11:29:50;;;;;;;11.77;9.50;;;41.60;1.00;;;;;;6353227;22;20826;-79
2022/07/25 11:32:23;;;;;;;10.80;9.70;;;40.40;1.00;;;;;;6351377;22;20405;-82
2022/07/25 11:34:52;;;;;;;11.10;10.00;;;40.10;1.00;;;;;;6348569;22;21118;-82
2022/07/25 11:37:19;;;;;;;10.30;9.27;;;41.20;1.00;;;;;;6344544;22;20409;-82
2022/07/25 11:39:49;;;;;;;10.60;9.50;;;42.30;1.00;;;;;;6347066;22;20599;-82
2022/07/25 11:42:18;;;;;;;10.43;8.57;;;41.80;1.00;;;;;;6348572;22;20798;-80
2022/07/25 11:44:46;;;;;;;13.50;9.70;;;42.30;1.00;;;;;;6348405;22;20425;-81
2022/07/25 11:47:33;;;;;;;10.60;8.83;;;41.90;1.00;;;;;;6348784;22;20393;-79
2022/07/25 11:50:04;;;;;;;10.27;9.17;;;42.30;1.00;;;;;;6346595;22;20820;-81
2022/07/25 11:52:34;;;;;;;10.10;9.00;;;42.70;1.00;;;;;;6348050;22;20667;-79
2022/07/25 11:55:04;;;;;;;9.33;8.40;;;42.40;1.00;;;;;;6349128;22;20472;-79
2022/07/25 11:57:36;;;;;;;9.73;8.03;;;41.20;1.00;;;;;;6351854;22;20429;-80
2022/07/25 12:00:10;;;;;;;9.90;8.90;;;40.40;1.00;;;;;;6349594;22;20500;-81
2022/07/25 12:02:40;;;;;;;10.70;8.53;;;41.10;1.00;;;;;;6350208;22;20543;-79
2022/07/25 12:05:14;;;;;;;10.57;9.37;;;42.10;1.00;;;;;;6348563;22;20423;-79
2022/07/25 12:07:44;;;;;;;11.00;9.63;;;43.10;1.00;;;;;;6351777;22;20429;-81
2022/07/25 12:10:19;;;;;;;10.03;9.03;;;43.10;1.00;;;;;;6352476;22;20431;-81
2022/07/25 12:12:53;;;;;;;10.60;8.87;;;43.10;1.00;;;;;;6352069;22;21007;-79
2022/07/25 12:15:22;;;;;;;10.13;8.67;;;43.70;1.00;;;;;;6351605;22;20417;-81
2022/07/25 12:17:56;;;;;;;11.50;8.50;;;44.00;1.00;;;;;;6353013;22;20431;-82
2022/07/25 12:20:25;;;;;;;10.00;9.00;;;42.60;1.00;;;;;;6349831;22;21033;-81
2022/07/25 12:22:57;;;;;;;11.67;9.00;;;42.80;1.00;;;;;;6352101;22;20475;-81
2022/07/25 12:25:24;;;;;;;9.83;8.53;;;44.00;1.00;;;;;;6349538;22;20421;-78
2022/07/25 12:27:54;;;;;;;9.57;8.57;;;44.00;1.00;;;;;;6350581;22;20412;-81
2022/07/25 12:30:20;;;;;;;10.27;8.80;;;43.80;1.00;;;;;;6349166;22;20507;-82
2022/07/25 12:32:52;;;;;;;10.30;9.30;;;44.20;1.00;;;;;;6351645;22;20844;-78
2022/07/25 12:35:20;;;;;;;10.73;9.23;;;44.90;1.00;;;;;;6349624;22;20413;-80
2022/07/25 12:37:52;;;;;;;9.80;8.80;;;45.40;1.00;;;;;;6322343;22;20421;-80
2022/07/25 12:40:20;;;;;;;9.90;8.90;;;46.00;1.00;;;;;;6349555;22;20478;-78
2022/07/25 12:42:50;;;;;;;10.03;8.93;;;45.30;1.00;;;;;;6351245;22;20421;-82
2022/07/25 12:45:17;;;;;;;11.67;9.20;;;44.80;1.00;;;;;;6352072;22;20440;-80
2022/07/25 12:47:45;;;;;;;10.30;9.20;;;44.60;1.00;;;;;;6355059;22;20387;-76
2022/07/25 12:50:15;;;;;;;10.00;8.50;;;44.90;1.00;;;;;;6353338;22;20408;-80
2022/07/25 12:52:44;;;;;;;10.63;8.10;;;45.50;1.00;;;;;;6344585;22;20409;-81
2022/07/25 12:55:15;;;;;;;9.67;8.67;;;46.00;1.00;;;;;;6347086;22;20456;-80
2022/07/25 12:57:42;;;;;;;9.03;8.10;;;46.70;1.00;;;;;;6350775;22;20429;-78
2022/07/25 13:00:18;;;;;;;8.43;7.57;;;47.30;1.00;;;;;;6350610;22;20386;-79
2022/07/25 13:02:45;;;;;;;12.03;9.53;;;47.00;1.00;;;;;;6352009;22;20409;-81
2022/07/25 13:05:14;;;;;;;9.23;8.33;;;45.40;1.00;;;;;;6353155;22;20400;-80
2022/07/25 13:07:41;;;;;;;12.17;9.97;;;44.80;1.00;;;;;;6353449;22;20539;-81